sensor_id;sensor_type;location;lat;lon;timestamp;pressure;altitude;pressure_sealevel;temperature;humidity
78485;BME280;67773;50.806;8.776;2023-03-31T00:01:25;98722.34;;;9.69;77.68
78485;BME280;67773;50.806;8.776;2023-03-31T00:03:51;98718.72;;;9.56;77.93
78485;BME280;67773;50.806;8.776;2023-03-31T00:06:26;98719.22;;;9.48;78.17
78485;BME280;67773;50.806;8.776;2023-03-31T00:08:51;98718.63;;;9.43;78.55
78485;BME280;67773;50.806;8.776;2023-03-31T00:11:18;98718.28;;;9.49;78.20
78485;BME280;67773;50.806;8.776;2023-03-31T00:13:44;98715.53;;;9.51;78.04
78485;BME280;67773;50.806;8.776;2023-03-31T00:16:09;98706.41;;;9.55;77.54
78485;BME280;67773;50.806;8.776;2023-03-31T00:18:36;98708.78;;;9.45;77.71
78485;BME280;67773;50.806;8.776;2023-03-31T00:21:06;98703.22;;;9.50;77.74
78485;BME280;67773;50.806;8.776;2023-03-31T00:23:32;98711.16;;;9.50;77.60
78485;BME280;67773;50.806;8.776;2023-03-31T00:25:57;98711.63;;;9.42;77.61
78485;BME280;67773;50.806;8.776;2023-03-31T00:28:23;98702.53;;;9.46;77.56
78485;BME280;67773;50.806;8.776;2023-03-31T00:30:48;98692.78;;;9.47;77.29
78485;BME280;67773;50.806;8.776;2023-03-31T00:33:14;98691.09;;;9.46;77.17
78485;BME280;67773;50.806;8.776;2023-03-31T00:35:39;98687.88;;;9.69;76.00
78485;BME280;67773;50.806;8.776;2023-03-31T00:38:05;98697.16;;;9.62;76.10
78485;BME280;67773;50.806;8.776;2023-03-31T00:40:43;98691.97;;;9.61;76.68
78485;BME280;67773;50.806;8.776;2023-03-31T00:43:39;98691.38;;;9.70;75.82
78485;BME280;67773;50.806;8.776;2023-03-31T00:46:09;98680.00;;;9.68;76.39
78485;BME280;67773;50.806;8.776;2023-03-31T00:48:46;98679.25;;;9.66;76.09
78485;BME280;67773;50.806;8.776;2023-03-31T00:51:12;98688.47;;;9.60;76.55
78485;BME280;67773;50.806;8.776;2023-03-31T00:53:39;98671.72;;;9.60;76.14
78485;BME280;67773;50.806;8.776;2023-03-31T00:56:09;98676.63;;;9.51;76.81
78485;BME280;67773;50.806;8.776;2023-03-31T00:58:36;98670.59;;;9.49;76.83
78485;BME280;67773;50.806;8.776;2023-03-31T01:01:09;98655.81;;;9.45;77.70
78485;BME280;67773;50.806;8.776;2023-03-31T01:03:39;98665.34;;;9.48;77.46
78485;BME280;67773;50.806;8.776;2023-03-31T01:06:05;98665.00;;;9.54;76.99
78485;BME280;67773;50.806;8.776;2023-03-31T01:08:35;98654.34;;;9.68;76.88
78485;BME280;67773;50.806;8.776;2023-03-31T01:11:11;98654.09;;;9.73;76.01
78485;BME280;67773;50.806;8.776;2023-03-31T01:13:38;98650.84;;;9.68;77.11
78485;BME280;67773;50.806;8.776;2023-03-31T01:16:05;98646.88;;;9.75;77.22
78485;BME280;67773;50.806;8.776;2023-03-31T01:18:30;98648.78;;;9.73;78.27
78485;BME280;67773;50.806;8.776;2023-03-31T01:21:42;98644.75;;;9.53;78.98
78485;BME280;67773;50.806;8.776;2023-03-31T01:24:33;98638.41;;;9.55;79.31
78485;BME280;67773;50.806;8.776;2023-03-31T01:27:29;98635.47;;;9.46;80.37
78485;BME280;67773;50.806;8.776;2023-03-31T01:33:14;98615.75;;;9.09;83.08
78485;BME280;67773;50.806;8.776;2023-03-31T01:41:30;98609.97;;;8.88;86.16
78485;BME280;67773;50.806;8.776;2023-03-31T01:46:54;98603.06;;;8.85;87.14
78485;BME280;67773;50.806;8.776;2023-03-31T01:54:58;98573.09;;;8.71;88.58
78485;BME280;67773;50.806;8.776;2023-03-31T01:57:35;98570.56;;;8.69;88.40
78485;BME280;67773;50.806;8.776;2023-03-31T02:00:08;98580.75;;;8.61;89.25
78485;BME280;67773;50.806;8.776;2023-03-31T02:02:48;98573.84;;;8.58;89.36
78485;BME280;67773;50.806;8.776;2023-03-31T02:05:17;98562.69;;;8.53;89.71
78485;BME280;67773;50.806;8.776;2023-03-31T02:07:59;98559.97;;;8.55;89.95
78485;BME280;67773;50.806;8.776;2023-03-31T02:10:29;98561.94;;;8.51;89.89
78485;BME280;67773;50.806;8.776;2023-03-31T02:12:57;98557.88;;;8.60;89.76
78485;BME280;67773;50.806;8.776;2023-03-31T02:15:27;98550.34;;;8.68;89.59
78485;BME280;67773;50.806;8.776;2023-03-31T02:17:57;98547.41;;;8.73;89.61
78485;BME280;67773;50.806;8.776;2023-03-31T02:20:24;98541.94;;;8.76;89.16
78485;BME280;67773;50.806;8.776;2023-03-31T02:22:54;98534.06;;;8.60;89.46
78485;BME280;67773;50.806;8.776;2023-03-31T02:25:34;98531.13;;;8.64;89.47
78485;BME280;67773;50.806;8.776;2023-03-31T02:28:07;98523.03;;;8.67;89.38
78485;BME280;67773;50.806;8.776;2023-03-31T02:33:22;98515.84;;;8.55;90.23
78485;BME280;67773;50.806;8.776;2023-03-31T02:35:47;98503.94;;;8.48;90.39
78485;BME280;67773;50.806;8.776;2023-03-31T02:38:12;98500.19;;;8.66;89.97
78485;BME280;67773;50.806;8.776;2023-03-31T02:40:38;98491.38;;;8.52;90.43
78485;BME280;67773;50.806;8.776;2023-03-31T02:43:03;98489.28;;;8.71;90.14
78485;BME280;67773;50.806;8.776;2023-03-31T02:45:47;98481.84;;;8.78;89.42
78485;BME280;67773;50.806;8.776;2023-03-31T02:48:25;98465.69;;;8.68;89.28
78485;BME280;67773;50.806;8.776;2023-03-31T02:51:16;98459.84;;;8.49;89.79
78485;BME280;67773;50.806;8.776;2023-03-31T02:53:53;98454.66;;;8.47;90.31
78485;BME280;67773;50.806;8.776;2023-03-31T03:07:35;98448.31;;;8.35;90.91
78485;BME280;67773;50.806;8.776;2023-03-31T03:10:16;98431.97;;;8.43;90.16
78485;BME280;67773;50.806;8.776;2023-03-31T03:15:13;98422.84;;;8.34;90.70
78485;BME280;67773;50.806;8.776;2023-03-31T03:17:43;98418.84;;;8.42;90.53
78485;BME280;67773;50.806;8.776;2023-03-31T03:20:10;98416.03;;;8.45;90.70
78485;BME280;67773;50.806;8.776;2023-03-31T03:22:37;98397.25;;;8.35;90.85
78485;BME280;67773;50.806;8.776;2023-03-31T03:25:08;98382.97;;;8.37;90.56
78485;BME280;67773;50.806;8.776;2023-03-31T03:27:35;98378.91;;;8.46;90.36
78485;BME280;67773;50.806;8.776;2023-03-31T03:30:02;98377.69;;;8.37;90.52
78485;BME280;67773;50.806;8.776;2023-03-31T03:32:30;98346.72;;;8.25;90.22
78485;BME280;67773;50.806;8.776;2023-03-31T03:34:58;98361.88;;;8.50;90.67
78485;BME280;67773;50.806;8.776;2023-03-31T03:37:23;98341.38;;;8.54;89.74
78485;BME280;67773;50.806;8.776;2023-03-31T03:39:49;98349.06;;;8.44;90.35
78485;BME280;67773;50.806;8.776;2023-03-31T03:42:14;98331.41;;;8.45;90.58
78485;BME280;67773;50.806;8.776;2023-03-31T03:44:40;98324.50;;;8.42;90.74
78485;BME280;67773;50.806;8.776;2023-03-31T03:47:05;98318.56;;;8.38;91.05
78485;BME280;67773;50.806;8.776;2023-03-31T03:49:30;98306.75;;;8.30;91.09
78485;BME280;67773;50.806;8.776;2023-03-31T03:51:56;98307.06;;;8.25;91.18
78485;BME280;67773;50.806;8.776;2023-03-31T03:54:21;98297.53;;;8.08;91.19
78485;BME280;67773;50.806;8.776;2023-03-31T03:56:46;98321.13;;;8.11;91.39
78485;BME280;67773;50.806;8.776;2023-03-31T03:59:12;98324.81;;;8.23;91.47
78485;BME280;67773;50.806;8.776;2023-03-31T04:01:37;98326.31;;;8.27;91.25
78485;BME280;67773;50.806;8.776;2023-03-31T04:04:03;98305.00;;;8.16;91.23
78485;BME280;67773;50.806;8.776;2023-03-31T04:06:28;98322.38;;;8.34;90.77
78485;BME280;67773;50.806;8.776;2023-03-31T04:08:54;98313.84;;;8.29;90.57
78485;BME280;67773;50.806;8.776;2023-03-31T04:11:20;98310.25;;;8.30;90.65
78485;BME280;67773;50.806;8.776;2023-03-31T04:13:46;98304.97;;;8.45;90.51
78485;BME280;67773;50.806;8.776;2023-03-31T04:16:12;98307.78;;;8.42;89.70
78485;BME280;67773;50.806;8.776;2023-03-31T04:18:37;98299.84;;;8.42;89.99
78485;BME280;67773;50.806;8.776;2023-03-31T04:21:08;98295.25;;;8.45;89.94
78485;BME280;67773;50.806;8.776;2023-03-31T04:23:37;98270.25;;;8.36;89.83
78485;BME280;67773;50.806;8.776;2023-03-31T04:26:09;98267.19;;;8.43;90.00
78485;BME280;67773;50.806;8.776;2023-03-31T04:28:35;98266.19;;;8.58;89.10
78485;BME280;67773;50.806;8.776;2023-03-31T04:31:03;98232.03;;;8.55;89.29
78485;BME280;67773;50.806;8.776;2023-03-31T04:33:30;98237.09;;;8.58;89.51
78485;BME280;67773;50.806;8.776;2023-03-31T04:35:58;98239.53;;;8.61;88.95
78485;BME280;67773;50.806;8.776;2023-03-31T04:38:30;98237.34;;;8.67;88.91
78485;BME280;67773;50.806;8.776;2023-03-31T04:40:58;98232.25;;;8.64;88.86
78485;BME280;67773;50.806;8.776;2023-03-31T04:43:24;98232.66;;;8.58;89.19
78485;BME280;67773;50.806;8.776;2023-03-31T04:45:49;98230.66;;;8.62;89.13
78485;BME280;67773;50.806;8.776;2023-03-31T04:48:15;98237.22;;;8.56;89.21
78485;BME280;67773;50.806;8.776;2023-03-31T04:50:40;98239.84;;;8.56;89.67
78485;BME280;67773;50.806;8.776;2023-03-31T04:53:06;98235.75;;;8.65;89.07
78485;BME280;67773;50.806;8.776;2023-03-31T04:55:32;98237.75;;;8.61;89.11
78485;BME280;67773;50.806;8.776;2023-03-31T04:57:57;98237.97;;;8.58;89.37
78485;BME280;67773;50.806;8.776;2023-03-31T05:00:23;98245.25;;;8.55;89.56
78485;BME280;67773;50.806;8.776;2023-03-31T05:02:48;98236.25;;;8.57;89.40
78485;BME280;67773;50.806;8.776;2023-03-31T05:05:14;98224.63;;;8.60;89.40
78485;BME280;67773;50.806;8.776;2023-03-31T05:07:39;98220.56;;;8.54;89.59
78485;BME280;67773;50.806;8.776;2023-03-31T05:10:05;98213.41;;;8.56;89.18
78485;BME280;67773;50.806;8.776;2023-03-31T05:12:37;98219.34;;;8.60;89.29
78485;BME280;67773;50.806;8.776;2023-03-31T05:15:04;98217.84;;;8.56;89.20
78485;BME280;67773;50.806;8.776;2023-03-31T05:17:34;98211.06;;;8.52;89.68
78485;BME280;67773;50.806;8.776;2023-03-31T05:19:59;98214.66;;;8.51;89.34
78485;BME280;67773;50.806;8.776;2023-03-31T05:22:26;98201.78;;;8.59;88.66
78485;BME280;67773;50.806;8.776;2023-03-31T05:24:51;98205.16;;;8.61;88.80
78485;BME280;67773;50.806;8.776;2023-03-31T05:27:16;98193.28;;;8.54;88.79
78485;BME280;67773;50.806;8.776;2023-03-31T05:29:42;98164.16;;;8.41;88.62
78485;BME280;67773;50.806;8.776;2023-03-31T05:32:08;98172.56;;;8.48;88.99
78485;BME280;67773;50.806;8.776;2023-03-31T05:34:33;98184.44;;;8.55;89.02
78485;BME280;67773;50.806;8.776;2023-03-31T05:36:59;98187.09;;;8.67;89.24
78485;BME280;67773;50.806;8.776;2023-03-31T05:39:24;98179.13;;;8.55;89.02
78485;BME280;67773;50.806;8.776;2023-03-31T05:41:50;98171.50;;;8.63;88.18
78485;BME280;67773;50.806;8.776;2023-03-31T05:44:15;98165.59;;;8.59;88.59
78485;BME280;67773;50.806;8.776;2023-03-31T05:46:41;98150.78;;;8.57;88.63
78485;BME280;67773;50.806;8.776;2023-03-31T05:49:06;98163.16;;;8.56;88.80
78485;BME280;67773;50.806;8.776;2023-03-31T05:51:32;98150.56;;;8.60;89.26
78485;BME280;67773;50.806;8.776;2023-03-31T05:53:58;98139.25;;;8.45;89.02
78485;BME280;67773;50.806;8.776;2023-03-31T05:56:24;98143.88;;;8.42;88.71
78485;BME280;67773;50.806;8.776;2023-03-31T05:58:51;98152.47;;;8.58;89.31
78485;BME280;67773;50.806;8.776;2023-03-31T06:01:17;98153.13;;;8.61;89.21
78485;BME280;67773;50.806;8.776;2023-03-31T06:03:47;98153.63;;;8.54;89.34
78485;BME280;67773;50.806;8.776;2023-03-31T06:06:12;98153.13;;;8.61;88.76
78485;BME280;67773;50.806;8.776;2023-03-31T06:08:39;98150.06;;;8.55;89.37
78485;BME280;67773;50.806;8.776;2023-03-31T06:11:10;98152.78;;;8.53;89.84
78485;BME280;67773;50.806;8.776;2023-03-31T06:13:36;98149.03;;;8.43;89.66
78485;BME280;67773;50.806;8.776;2023-03-31T06:16:02;98147.91;;;8.47;89.83
78485;BME280;67773;50.806;8.776;2023-03-31T06:18:29;98133.84;;;8.47;90.08
78485;BME280;67773;50.806;8.776;2023-03-31T06:20:56;98136.44;;;8.34;90.72
78485;BME280;67773;50.806;8.776;2023-03-31T06:23:22;98140.59;;;8.38;90.48
78485;BME280;67773;50.806;8.776;2023-03-31T06:25:48;98130.13;;;8.36;90.25
78485;BME280;67773;50.806;8.776;2023-03-31T06:28:13;98141.22;;;8.42;90.75
78485;BME280;67773;50.806;8.776;2023-03-31T06:30:39;98130.22;;;8.35;90.89
78485;BME280;67773;50.806;8.776;2023-03-31T06:33:05;98131.44;;;8.29;91.01
78485;BME280;67773;50.806;8.776;2023-03-31T06:35:30;98134.66;;;8.34;91.25
78485;BME280;67773;50.806;8.776;2023-03-31T06:37:56;98121.59;;;8.31;91.03
78485;BME280;67773;50.806;8.776;2023-03-31T06:40:22;98128.31;;;8.37;91.52
78485;BME280;67773;50.806;8.776;2023-03-31T06:42:47;98128.44;;;8.35;91.12
78485;BME280;67773;50.806;8.776;2023-03-31T06:45:12;98120.50;;;8.35;91.46
78485;BME280;67773;50.806;8.776;2023-03-31T06:47:38;98113.66;;;8.31;91.35
78485;BME280;67773;50.806;8.776;2023-03-31T06:50:06;98108.22;;;8.34;91.57
78485;BME280;67773;50.806;8.776;2023-03-31T06:52:32;98097.66;;;8.34;91.43
78485;BME280;67773;50.806;8.776;2023-03-31T06:54:57;98100.31;;;8.34;91.98
78485;BME280;67773;50.806;8.776;2023-03-31T06:57:24;98077.28;;;8.22;92.13
78485;BME280;67773;50.806;8.776;2023-03-31T06:59:50;98088.44;;;8.40;91.74
78485;BME280;67773;50.806;8.776;2023-03-31T07:02:15;98090.09;;;8.28;91.54
78485;BME280;67773;50.806;8.776;2023-03-31T07:04:40;98096.22;;;8.29;91.78
78485;BME280;67773;50.806;8.776;2023-03-31T07:07:06;98083.38;;;8.37;92.26
78485;BME280;67773;50.806;8.776;2023-03-31T07:09:31;98093.59;;;8.29;91.76
78485;BME280;67773;50.806;8.776;2023-03-31T07:11:56;98077.81;;;8.27;91.92
78485;BME280;67773;50.806;8.776;2023-03-31T07:14:22;98065.44;;;8.15;92.09
78485;BME280;67773;50.806;8.776;2023-03-31T07:16:47;98064.28;;;8.19;92.59
78485;BME280;67773;50.806;8.776;2023-03-31T07:19:14;98065.78;;;8.23;92.72
78485;BME280;67773;50.806;8.776;2023-03-31T07:21:39;98058.47;;;8.27;92.78
78485;BME280;67773;50.806;8.776;2023-03-31T07:24:05;98056.69;;;8.27;92.60
78485;BME280;67773;50.806;8.776;2023-03-31T07:26:30;98058.13;;;8.19;91.05
78485;BME280;67773;50.806;8.776;2023-03-31T07:28:56;98055.28;;;8.22;91.85
78485;BME280;67773;50.806;8.776;2023-03-31T07:31:22;98058.03;;;8.20;92.29
78485;BME280;67773;50.806;8.776;2023-03-31T07:33:47;98044.63;;;8.23;91.93
78485;BME280;67773;50.806;8.776;2023-03-31T07:36:13;98042.00;;;8.23;91.77
78485;BME280;67773;50.806;8.776;2023-03-31T07:38:39;98030.63;;;8.35;91.31
78485;BME280;67773;50.806;8.776;2023-03-31T07:41:09;98033.63;;;8.29;91.17
78485;BME280;67773;50.806;8.776;2023-03-31T07:43:34;98026.06;;;8.37;92.18
78485;BME280;67773;50.806;8.776;2023-03-31T07:46:00;98017.91;;;8.41;91.86
78485;BME280;67773;50.806;8.776;2023-03-31T07:48:25;98018.66;;;8.43;91.75
78485;BME280;67773;50.806;8.776;2023-03-31T07:50:52;98017.69;;;8.44;91.65
78485;BME280;67773;50.806;8.776;2023-03-31T07:53:18;98002.91;;;8.41;91.93
78485;BME280;67773;50.806;8.776;2023-03-31T07:55:43;97987.97;;;8.53;91.61
78485;BME280;67773;50.806;8.776;2023-03-31T07:58:08;97976.44;;;8.66;91.18
78485;BME280;67773;50.806;8.776;2023-03-31T08:00:35;97967.56;;;8.67;90.89
78485;BME280;67773;50.806;8.776;2023-03-31T08:03:01;97970.09;;;8.69;91.18
78485;BME280;67773;50.806;8.776;2023-03-31T08:05:26;97955.34;;;8.90;89.90
78485;BME280;67773;50.806;8.776;2023-03-31T08:07:52;97950.13;;;9.02;90.49
78485;BME280;67773;50.806;8.776;2023-03-31T08:10:20;97949.75;;;9.19;89.97
78485;BME280;67773;50.806;8.776;2023-03-31T08:12:46;97952.22;;;9.33;89.78
78485;BME280;67773;50.806;8.776;2023-03-31T08:15:11;97948.91;;;9.42;87.93
78485;BME280;67773;50.806;8.776;2023-03-31T08:17:38;97932.91;;;9.44;88.04
78485;BME280;67773;50.806;8.776;2023-03-31T08:20:04;97931.25;;;9.54;87.66
78485;BME280;67773;50.806;8.776;2023-03-31T08:22:34;97932.81;;;9.57;88.01
78485;BME280;67773;50.806;8.776;2023-03-31T08:24:59;97924.84;;;9.45;88.33
78485;BME280;67773;50.806;8.776;2023-03-31T08:27:25;97905.22;;;9.48;87.42
78485;BME280;67773;50.806;8.776;2023-03-31T08:29:50;97914.25;;;9.45;87.25
78485;BME280;67773;50.806;8.776;2023-03-31T08:32:15;97915.69;;;9.38;86.16
78485;BME280;67773;50.806;8.776;2023-03-31T08:34:41;97912.97;;;9.51;87.18
78485;BME280;67773;50.806;8.776;2023-03-31T08:37:08;97920.94;;;9.62;85.73
78485;BME280;67773;50.806;8.776;2023-03-31T08:39:33;97923.25;;;9.78;85.55
78485;BME280;67773;50.806;8.776;2023-03-31T08:42:15;97902.38;;;10.08;84.33
78485;BME280;67773;50.806;8.776;2023-03-31T08:44:54;97922.47;;;10.46;83.96
78485;BME280;67773;50.806;8.776;2023-03-31T08:47:23;97892.91;;;10.51;83.84
78485;BME280;67773;50.806;8.776;2023-03-31T08:49:56;97916.88;;;10.83;83.21
78485;BME280;67773;50.806;8.776;2023-03-31T08:52:27;97911.81;;;10.91;82.83
78485;BME280;67773;50.806;8.776;2023-03-31T08:55:01;97905.31;;;10.61;81.72
78485;BME280;67773;50.806;8.776;2023-03-31T08:57:36;97908.81;;;10.84;82.35
78485;BME280;67773;50.806;8.776;2023-03-31T09:00:03;97897.75;;;11.11;81.29
78485;BME280;67773;50.806;8.776;2023-03-31T09:05:11;97897.03;;;11.73;77.19
78485;BME280;67773;50.806;8.776;2023-03-31T09:07:50;97895.75;;;12.30;74.68
78485;BME280;67773;50.806;8.776;2023-03-31T09:13:01;97876.84;;;14.48;66.57
78485;BME280;67773;50.806;8.776;2023-03-31T09:15:43;97854.94;;;13.97;69.09
78485;BME280;67773;50.806;8.776;2023-03-31T09:20:50;97865.75;;;12.59;71.84
78485;BME280;67773;50.806;8.776;2023-03-31T09:23:36;97856.16;;;14.12;68.17
78485;BME280;67773;50.806;8.776;2023-03-31T09:26:03;97855.06;;;14.52;64.08
78485;BME280;67773;50.806;8.776;2023-03-31T09:28:36;97839.06;;;17.23;57.60
78485;BME280;67773;50.806;8.776;2023-03-31T09:31:10;97849.50;;;16.50;57.98
78485;BME280;67773;50.806;8.776;2023-03-31T09:33:41;97838.84;;;16.32;57.96
78485;BME280;67773;50.806;8.776;2023-03-31T09:36:12;97856.25;;;14.67;62.78
78485;BME280;67773;50.806;8.776;2023-03-31T09:38:40;97856.66;;;13.60;68.63
78485;BME280;67773;50.806;8.776;2023-03-31T09:41:06;97849.50;;;13.79;67.03
78485;BME280;67773;50.806;8.776;2023-03-31T09:43:33;97840.78;;;14.89;64.52
78485;BME280;67773;50.806;8.776;2023-03-31T09:46:04;97837.50;;;14.50;63.87
78485;BME280;67773;50.806;8.776;2023-03-31T09:48:38;97832.34;;;13.92;65.33
78485;BME280;67773;50.806;8.776;2023-03-31T09:51:06;97825.31;;;18.15;54.41
78485;BME280;67773;50.806;8.776;2023-03-31T09:53:39;97827.19;;;18.07;54.23
78485;BME280;67773;50.806;8.776;2023-03-31T09:56:08;97799.81;;;17.06;55.97
78485;BME280;67773;50.806;8.776;2023-03-31T09:58:43;97817.97;;;14.77;62.22
78485;BME280;67773;50.806;8.776;2023-03-31T10:01:10;97828.25;;;14.34;64.64
78485;BME280;67773;50.806;8.776;2023-03-31T10:03:50;97797.00;;;15.53;62.06
78485;BME280;67773;50.806;8.776;2023-03-31T10:06:17;97806.47;;;15.65;60.32
78485;BME280;67773;50.806;8.776;2023-03-31T10:08:49;97793.44;;;14.26;64.52
78485;BME280;67773;50.806;8.776;2023-03-31T10:11:16;97802.47;;;14.62;63.48
78485;BME280;67773;50.806;8.776;2023-03-31T10:16:30;97779.66;;;18.63;52.20
78485;BME280;67773;50.806;8.776;2023-03-31T10:21:48;97792.09;;;14.59;60.24
78485;BME280;67773;50.806;8.776;2023-03-31T10:24:19;97781.91;;;14.08;63.47
78485;BME280;67773;50.806;8.776;2023-03-31T10:26:49;97780.03;;;14.18;62.57
78485;BME280;67773;50.806;8.776;2023-03-31T10:29:25;97775.97;;;14.14;60.84
78485;BME280;67773;50.806;8.776;2023-03-31T10:31:53;97777.16;;;14.29;61.11
78485;BME280;67773;50.806;8.776;2023-03-31T10:34:20;97761.66;;;14.88;58.72
78485;BME280;67773;50.806;8.776;2023-03-31T10:36:48;97770.03;;;15.64;56.92
78485;BME280;67773;50.806;8.776;2023-03-31T10:39:16;97755.63;;;14.40;60.38
78485;BME280;67773;50.806;8.776;2023-03-31T10:41:42;97758.81;;;14.44;60.52
78485;BME280;67773;50.806;8.776;2023-03-31T10:44:34;97765.63;;;14.84;59.64
78485;BME280;67773;50.806;8.776;2023-03-31T10:49:39;97756.63;;;14.02;62.62
78485;BME280;67773;50.806;8.776;2023-03-31T10:52:19;97753.78;;;13.76;63.60
78485;BME280;67773;50.806;8.776;2023-03-31T10:55:02;97743.44;;;14.83;59.94
78485;BME280;67773;50.806;8.776;2023-03-31T10:57:55;97753.84;;;14.59;60.87
78485;BME280;67773;50.806;8.776;2023-03-31T11:00:31;97744.19;;;13.83;63.93
78485;BME280;67773;50.806;8.776;2023-03-31T11:03:29;97741.31;;;15.30;59.46
78485;BME280;67773;50.806;8.776;2023-03-31T11:06:12;97726.13;;;17.10;53.17
78485;BME280;67773;50.806;8.776;2023-03-31T11:09:05;97721.41;;;16.37;53.83
78485;BME280;67773;50.806;8.776;2023-03-31T11:14:49;97730.59;;;14.41;60.00
78485;BME280;67773;50.806;8.776;2023-03-31T11:17:32;97708.09;;;14.71;59.98
78485;BME280;67773;50.806;8.776;2023-03-31T11:25:27;97715.19;;;13.24;63.89
78485;BME280;67773;50.806;8.776;2023-03-31T11:28:22;97724.97;;;12.65;66.28
78485;BME280;67773;50.806;8.776;2023-03-31T11:30:57;97737.84;;;11.70;74.17
78485;BME280;67773;50.806;8.776;2023-03-31T11:34:10;97762.44;;;10.57;82.39
78485;BME280;67773;50.806;8.776;2023-03-31T11:37:11;97788.91;;;10.25;84.68
78485;BME280;67773;50.806;8.776;2023-03-31T11:42:15;97781.03;;;9.90;86.00
78485;BME280;67773;50.806;8.776;2023-03-31T11:44:45;97770.69;;;9.75;85.21
78485;BME280;67773;50.806;8.776;2023-03-31T11:47:22;97758.50;;;9.62;83.49
78485;BME280;67773;50.806;8.776;2023-03-31T11:49:55;97736.13;;;9.77;83.08
78485;BME280;67773;50.806;8.776;2023-03-31T11:52:27;97750.66;;;10.16;82.91
78485;BME280;67773;50.806;8.776;2023-03-31T11:55:05;97740.28;;;10.47;81.43
78485;BME280;67773;50.806;8.776;2023-03-31T12:00:23;97722.63;;;11.51;79.59
78485;BME280;67773;50.806;8.776;2023-03-31T12:03:03;97738.53;;;12.43;75.72
78485;BME280;67773;50.806;8.776;2023-03-31T12:05:36;97728.03;;;13.57;72.81
78485;BME280;67773;50.806;8.776;2023-03-31T12:08:29;97739.22;;;13.61;69.78
78485;BME280;67773;50.806;8.776;2023-03-31T12:11:04;97745.91;;;13.75;69.86
78485;BME280;67773;50.806;8.776;2023-03-31T12:13:38;97745.09;;;13.65;70.64
78485;BME280;67773;50.806;8.776;2023-03-31T12:16:18;97752.16;;;12.79;71.09
78485;BME280;67773;50.806;8.776;2023-03-31T12:21:34;97740.88;;;13.72;67.29
78485;BME280;67773;50.806;8.776;2023-03-31T12:24:01;97730.91;;;13.74;65.27
78485;BME280;67773;50.806;8.776;2023-03-31T12:26:43;97735.38;;;13.36;66.30
78485;BME280;67773;50.806;8.776;2023-03-31T12:29:25;97726.09;;;13.01;68.45
78485;BME280;67773;50.806;8.776;2023-03-31T12:31:52;97727.81;;;13.03;68.22
78485;BME280;67773;50.806;8.776;2023-03-31T12:34:19;97715.44;;;13.01;69.61
78485;BME280;67773;50.806;8.776;2023-03-31T12:42:54;97748.84;;;11.66;72.41
78485;BME280;67773;50.806;8.776;2023-03-31T12:45:25;97793.25;;;11.33;75.32
78485;BME280;67773;50.806;8.776;2023-03-31T12:53:21;97757.75;;;9.37;80.72
78485;BME280;67773;50.806;8.776;2023-03-31T12:55:54;97755.09;;;9.37;84.35
78485;BME280;67773;50.806;8.776;2023-03-31T13:06:00;97731.09;;;9.16;87.58
78485;BME280;67773;50.806;8.776;2023-03-31T13:09:06;97741.09;;;9.13;84.20
78485;BME280;67773;50.806;8.776;2023-03-31T13:14:11;97724.06;;;11.35;77.08
78485;BME280;67773;50.806;8.776;2023-03-31T13:16:38;97719.06;;;11.93;73.44
78485;BME280;67773;50.806;8.776;2023-03-31T13:19:04;97723.56;;;11.20;73.01
78485;BME280;67773;50.806;8.776;2023-03-31T13:21:30;97717.44;;;11.50;72.22
78485;BME280;67773;50.806;8.776;2023-03-31T13:23:59;97710.63;;;11.88;73.71
78485;BME280;67773;50.806;8.776;2023-03-31T13:35:01;97709.00;;;12.56;70.89
78485;BME280;67773;50.806;8.776;2023-03-31T13:43:36;97692.44;;;11.32;76.86
78485;BME280;67773;50.806;8.776;2023-03-31T13:51:39;97676.91;;;10.64;83.08
78485;BME280;67773;50.806;8.776;2023-03-31T14:00:20;97812.75;;;9.34;83.52
78485;BME280;67773;50.806;8.776;2023-03-31T14:05:36;97736.97;;;8.98;88.12
78485;BME280;67773;50.806;8.776;2023-03-31T14:08:09;97723.81;;;8.96;89.11
78485;BME280;67773;50.806;8.776;2023-03-31T14:10:40;97721.94;;;8.74;87.51
78485;BME280;67773;50.806;8.776;2023-03-31T14:13:17;97720.34;;;8.95;88.24
78485;BME280;67773;50.806;8.776;2023-03-31T14:15:52;97705.69;;;9.03;86.42
78485;BME280;67773;50.806;8.776;2023-03-31T14:18:25;97708.63;;;9.22;88.46
78485;BME280;67773;50.806;8.776;2023-03-31T14:21:00;97698.78;;;9.35;88.30
78485;BME280;67773;50.806;8.776;2023-03-31T14:23:48;97699.53;;;9.60;86.67
78485;BME280;67773;50.806;8.776;2023-03-31T14:26:37;97694.81;;;9.74;84.40
78485;BME280;67773;50.806;8.776;2023-03-31T14:29:22;97694.06;;;9.95;83.20
78485;BME280;67773;50.806;8.776;2023-03-31T14:32:17;97680.41;;;10.10;80.27
78485;BME280;67773;50.806;8.776;2023-03-31T14:35:05;97679.94;;;10.28;79.98
78485;BME280;67773;50.806;8.776;2023-03-31T14:37:38;97680.13;;;10.47;79.82
78485;BME280;67773;50.806;8.776;2023-03-31T14:40:04;97674.75;;;10.58;78.00
78485;BME280;67773;50.806;8.776;2023-03-31T14:42:39;97667.41;;;10.83;78.50
78485;BME280;67773;50.806;8.776;2023-03-31T14:45:15;97667.03;;;11.08;78.43
78485;BME280;67773;50.806;8.776;2023-03-31T14:47:40;97655.22;;;11.01;77.89
78485;BME280;67773;50.806;8.776;2023-03-31T14:50:17;97659.69;;;11.21;77.63
78485;BME280;67773;50.806;8.776;2023-03-31T14:52:50;97658.28;;;11.17;76.71
78485;BME280;67773;50.806;8.776;2023-03-31T14:55:22;97651.53;;;11.13;76.29
78485;BME280;67773;50.806;8.776;2023-03-31T14:57:49;97645.19;;;11.25;74.76
78485;BME280;67773;50.806;8.776;2023-03-31T15:00:24;97625.72;;;11.15;77.77
78485;BME280;67773;50.806;8.776;2023-03-31T15:02:51;97627.63;;;11.13;75.02
78485;BME280;67773;50.806;8.776;2023-03-31T15:05:30;97639.03;;;11.04;79.02
78485;BME280;67773;50.806;8.776;2023-03-31T15:07:57;97636.72;;;10.90;77.37
78485;BME280;67773;50.806;8.776;2023-03-31T15:10:24;97648.56;;;10.65;81.17
78485;BME280;67773;50.806;8.776;2023-03-31T15:12:53;97650.00;;;10.37;79.96
78485;BME280;67773;50.806;8.776;2023-03-31T15:15:19;97668.50;;;10.05;81.25
78485;BME280;67773;50.806;8.776;2023-03-31T15:17:46;97703.00;;;9.82;82.31
78485;BME280;67773;50.806;8.776;2023-03-31T15:20:27;97713.34;;;9.86;84.42
78485;BME280;67773;50.806;8.776;2023-03-31T15:22:57;97715.88;;;9.65;85.67